createdAt,value
2022-09-23T00:00:48.067Z,5.25
2022-09-23T00:06:03.661Z,7.97
2022-09-23T00:08:31.392Z,7.72
2022-09-23T00:11:04.794Z,9.10
2022-09-23T00:13:32.989Z,6.35
2022-09-23T00:16:02.876Z,7.10
2022-09-23T00:18:30.036Z,6.32
2022-09-23T00:21:02.863Z,5.97
2022-09-23T00:23:30.157Z,7.28
2022-09-23T00:25:58.187Z,5.72
2022-09-23T00:28:26.228Z,5.70
2022-09-23T00:30:53.789Z,5.78
2022-09-23T00:33:21.357Z,5.20
2022-09-23T00:35:49.362Z,5.50
2022-09-23T00:38:18.207Z,5.57
2022-09-23T00:40:46.258Z,5.65
2022-09-23T00:43:14.886Z,5.53
2022-09-23T00:45:46.856Z,5.68
2022-09-23T00:48:18.152Z,5.18
2022-09-23T00:50:49.706Z,7.88
2022-09-23T00:53:22.783Z,5.05
2022-09-23T00:55:53.221Z,6.30
2022-09-23T00:58:25.377Z,7.82
2022-09-23T01:00:53.180Z,5.90
2022-09-23T01:03:21.252Z,4.97
2022-09-23T01:05:49.767Z,6.43
2022-09-23T01:08:19.385Z,6.25
2022-09-23T01:10:59.229Z,5.20
2022-09-23T01:13:35.937Z,6.07
2022-09-23T01:16:08.612Z,6.18
2022-09-23T01:18:46.473Z,5.75
2022-09-23T01:21:23.178Z,6.20
2022-09-23T01:24:13.133Z,5.90
2022-09-23T01:26:58.554Z,6.60
2022-09-23T01:30:18.120Z,6.32
2022-09-23T01:33:05.340Z,5.97
2022-09-23T01:35:46.513Z,5.55
2022-09-23T01:38:27.041Z,6.20
2022-09-23T01:41:02.876Z,6.20
2022-09-23T01:43:37.956Z,6.07
2022-09-23T01:46:11.317Z,7.68
2022-09-23T01:48:45.412Z,8.38
2022-09-23T01:51:16.434Z,7.15
2022-09-23T01:53:49.391Z,7.40
2022-09-23T01:56:22.473Z,6.80
2022-09-23T02:01:27.402Z,5.05
2022-09-23T02:04:01.484Z,6.43
2022-09-23T02:06:33.734Z,5.40
2022-09-23T02:09:05.361Z,6.22
2022-09-23T02:11:35.020Z,7.93
2022-09-23T02:14:09.417Z,7.57
2022-09-23T02:16:43.470Z,5.63
2022-09-23T02:19:18.748Z,5.53
2022-09-23T02:21:53.015Z,5.47
2022-09-23T02:24:23.040Z,7.57
2022-09-23T02:26:54.693Z,7.57
2022-09-23T02:29:28.755Z,7.43
2022-09-23T02:32:00.008Z,6.38
2022-09-23T02:34:43.145Z,5.45
2022-09-23T02:37:21.076Z,5.78
2022-09-23T02:39:56.474Z,7.15
2022-09-23T02:42:32.829Z,7.00
2022-09-23T02:45:00.324Z,5.93
2022-09-23T02:47:32.546Z,5.88
2022-09-23T02:50:01.680Z,8.20
2022-09-23T02:52:29.653Z,6.47
2022-09-23T02:54:57.536Z,7.30
2022-09-23T02:57:24.973Z,6.78
2022-09-23T02:59:52.789Z,7.20
2022-09-23T03:02:40.025Z,6.18
2022-09-23T03:05:19.116Z,5.75
2022-09-23T03:07:55.886Z,6.28
2022-09-23T03:10:30.045Z,6.35
2022-09-23T03:13:06.681Z,5.82
2022-09-23T03:15:38.906Z,6.38
2022-09-23T03:18:15.003Z,6.65
2022-09-23T03:20:48.765Z,5.38
2022-09-23T03:23:19.956Z,5.57
2022-09-23T03:25:50.403Z,4.93
2022-09-23T03:28:18.965Z,6.00
2022-09-23T03:30:46.598Z,5.38
2022-09-23T03:33:17.827Z,5.65
2022-09-23T03:35:53.174Z,5.90
2022-09-23T03:38:26.074Z,4.93
2022-09-23T03:40:58.239Z,4.97
2022-09-23T03:43:26.526Z,5.32
2022-09-23T03:45:54.629Z,5.35
2022-09-23T03:48:22.122Z,5.55
2022-09-23T03:50:51.571Z,4.15
2022-09-23T03:53:18.954Z,4.63
2022-09-23T03:55:46.305Z,4.78
2022-09-23T03:58:14.045Z,5.45
2022-09-23T04:00:41.423Z,4.95
2022-09-23T04:03:11.730Z,6.25
2022-09-23T04:05:39.620Z,5.57
2022-09-23T04:08:08.899Z,5.13
2022-09-23T04:10:36.185Z,5.05
2022-09-23T04:13:04.004Z,6.55
2022-09-23T04:15:31.296Z,6.47
2022-09-23T04:17:58.564Z,6.45
2022-09-23T04:20:26.479Z,7.72
2022-09-23T04:22:53.775Z,6.88
2022-09-23T04:25:22.651Z,6.22
2022-09-23T04:27:50.334Z,5.45
2022-09-23T04:30:17.770Z,5.43
2022-09-23T04:32:45.069Z,5.78
2022-09-23T04:35:12.902Z,6.68
2022-09-23T04:37:40.117Z,6.70
2022-09-23T04:40:09.430Z,6.60
2022-09-23T04:42:39.004Z,8.05
2022-09-23T04:45:08.024Z,6.38
2022-09-23T04:47:35.285Z,6.03
2022-09-23T04:50:03.297Z,6.10
2022-09-23T04:52:31.076Z,7.82
2022-09-23T04:54:58.511Z,6.63
2022-09-23T04:57:26.144Z,5.53
2022-09-23T04:59:55.196Z,5.28
2022-09-23T05:02:22.816Z,6.53
2022-09-23T05:04:50.539Z,7.40
2022-09-23T05:07:18.053Z,8.07
2022-09-23T05:09:45.548Z,7.75
2022-09-23T05:12:13.303Z,9.90
2022-09-23T05:14:40.720Z,9.23
2022-09-23T05:17:09.606Z,7.45
2022-09-23T05:19:37.527Z,6.07
2022-09-23T05:22:04.914Z,6.97
2022-09-23T05:24:32.236Z,9.30
2022-09-23T05:26:59.760Z,10.10
2022-09-23T05:29:27.048Z,8.88
2022-09-23T05:31:54.384Z,7.18
2022-09-23T05:34:29.584Z,6.55
2022-09-23T05:36:57.083Z,9.43
2022-09-23T05:39:24.870Z,9.43
2022-09-23T05:41:52.260Z,7.82
2022-09-23T05:44:20.267Z,8.57
2022-09-23T05:46:48.082Z,8.02
2022-09-23T05:49:15.989Z,8.20
2022-09-23T05:51:44.717Z,8.25
2022-09-23T05:54:12.569Z,8.52
2022-09-23T05:56:39.901Z,8.60
2022-09-23T05:59:07.372Z,8.95
2022-09-23T06:01:35.884Z,9.45
2022-09-23T06:04:05.473Z,8.77
2022-09-23T06:06:36.270Z,8.98
2022-09-23T06:09:06.642Z,9.23
2022-09-23T06:11:35.805Z,8.73
2022-09-23T06:14:04.123Z,8.77
2022-09-23T06:16:34.498Z,9.45
2022-09-23T06:19:05.397Z,7.60
2022-09-23T06:21:36.407Z,8.07
2022-09-23T06:24:06.770Z,7.15
2022-09-23T06:26:34.868Z,7.95
2022-09-23T06:29:03.694Z,8.30
2022-09-23T06:31:31.138Z,8.88
2022-09-23T06:34:12.806Z,8.48
2022-09-23T06:36:44.984Z,7.50
2022-09-23T06:39:15.405Z,7.47
2022-09-23T06:41:48.998Z,6.90
2022-09-23T06:44:24.223Z,7.18
2022-09-23T06:46:59.801Z,8.38
2022-09-23T06:49:27.485Z,7.30
2022-09-23T06:51:54.806Z,7.45
2022-09-23T06:54:23.668Z,8.43
2022-09-23T06:56:51.385Z,8.98
2022-09-23T06:59:18.783Z,9.45
2022-09-23T07:01:46.545Z,8.70
2022-09-23T07:04:14.606Z,7.70
2022-09-23T07:06:41.941Z,6.63
2022-09-23T07:09:09.533Z,7.05
2022-09-23T07:11:39.140Z,6.97
2022-09-23T07:14:07.269Z,6.15
2022-09-23T07:16:34.971Z,6.18
2022-09-23T07:19:03.228Z,6.07
2022-09-23T07:21:30.909Z,5.82
2022-09-23T07:23:58.377Z,6.03
2022-09-23T07:26:26.988Z,5.18
2022-09-23T07:28:56.945Z,5.68
2022-09-23T07:31:37.965Z,5.57
2022-09-23T07:34:08.789Z,5.32
2022-09-23T07:36:36.078Z,3.92
2022-09-23T07:39:03.612Z,4.35
2022-09-23T07:41:33.037Z,4.55
2022-09-23T07:44:02.173Z,3.92
2022-09-23T07:46:32.118Z,4.68
2022-09-23T07:49:00.016Z,4.82
2022-09-23T07:51:34.777Z,4.25
2022-09-23T07:54:05.200Z,4.78
2022-09-23T07:56:32.828Z,4.65
2022-09-23T07:59:01.575Z,5.22
2022-09-23T08:01:31.801Z,4.43
2022-09-23T08:04:00.849Z,5.07
2022-09-23T08:06:28.253Z,5.20
2022-09-23T08:08:58.152Z,5.05
2022-09-23T08:11:26.492Z,4.40
2022-09-23T08:13:53.909Z,4.72
2022-09-23T08:16:23.105Z,3.83
2022-09-23T08:18:50.614Z,4.00
2022-09-23T08:21:19.862Z,3.85
2022-09-23T08:23:47.891Z,3.92
2022-09-23T08:26:20.993Z,3.60
2022-09-23T08:28:50.459Z,3.60
2022-09-23T08:31:17.795Z,3.80
2022-09-23T08:33:46.883Z,3.17
2022-09-23T08:36:14.548Z,3.53
2022-09-23T08:38:42.292Z,3.90
2022-09-23T08:41:17.226Z,3.30
2022-09-23T08:43:48.791Z,2.92
2022-09-23T08:46:22.316Z,3.20
2022-09-23T08:48:52.755Z,2.72
2022-09-23T08:51:25.695Z,2.40
2022-09-23T08:53:53.415Z,2.33
2022-09-23T08:56:23.487Z,2.88
2022-09-23T08:59:04.738Z,2.53
2022-09-23T09:01:41.667Z,3.17
2022-09-23T09:04:20.521Z,2.78
2022-09-23T09:06:54.293Z,2.40
2022-09-23T09:09:27.078Z,2.15
2022-09-23T09:12:01.530Z,2.38
2022-09-23T09:14:36.443Z,2.38
2022-09-23T09:17:07.385Z,2.03
2022-09-23T09:19:54.186Z,1.98
2022-09-23T09:22:33.263Z,2.10
2022-09-23T09:25:10.465Z,1.75
2022-09-23T09:27:40.913Z,1.80
2022-09-23T09:30:12.789Z,2.20
2022-09-23T09:32:48.128Z,1.75
2022-09-23T09:35:28.558Z,2.13
2022-09-23T09:37:56.253Z,1.58
2022-09-23T09:40:24.102Z,1.80
2022-09-23T09:42:51.799Z,1.70
2022-09-23T09:45:29.841Z,1.80
2022-09-23T09:48:06.592Z,1.63
2022-09-23T09:50:49.589Z,1.60
2022-09-23T09:53:21.626Z,1.50
2022-09-23T09:56:04.379Z,1.92
2022-09-23T09:58:43.403Z,1.60
2022-09-23T10:01:22.749Z,1.35
2022-09-23T10:03:54.311Z,1.35
2022-09-23T10:06:28.624Z,1.33
2022-09-23T10:09:17.220Z,1.20
2022-09-23T10:12:04.099Z,1.38
2022-09-23T10:14:31.407Z,1.45
2022-09-23T10:17:04.172Z,1.40
2022-09-23T10:19:32.742Z,1.00
2022-09-23T10:22:05.034Z,1.10
2022-09-23T10:24:34.915Z,1.02
2022-09-23T10:27:04.901Z,1.10
2022-09-23T10:29:34.068Z,1.00
2022-09-23T10:32:20.811Z,1.27
2022-09-23T10:34:52.347Z,1.10
2022-09-23T10:37:32.918Z,1.25
2022-09-23T10:40:12.080Z,1.08
2022-09-23T10:42:56.611Z,0.90
2022-09-23T10:45:28.342Z,1.20
2022-09-23T10:48:03.337Z,1.10
2022-09-23T10:50:41.939Z,1.20
2022-09-23T10:56:04.441Z,1.00
2022-09-23T10:59:13.496Z,1.00
2022-09-23T11:01:49.913Z,0.95
2022-09-23T11:04:38.809Z,1.02
2022-09-23T11:07:21.273Z,1.10
2022-09-23T11:10:23.183Z,1.17
2022-09-23T11:13:07.477Z,1.10
2022-09-23T11:15:44.778Z,1.08
2022-09-23T11:18:48.918Z,1.00
2022-09-23T11:21:50.145Z,1.20
2022-09-23T11:24:54.344Z,1.08
2022-09-23T11:27:40.597Z,1.02
2022-09-23T11:30:11.296Z,1.08
2022-09-23T11:32:58.042Z,1.20
2022-09-23T11:35:29.545Z,0.90
2022-09-23T11:38:05.173Z,1.10
2022-09-23T11:40:35.610Z,1.00
2022-09-23T11:43:14.924Z,1.10
2022-09-23T11:45:47.217Z,0.93
2022-09-23T11:48:18.921Z,1.10
2022-09-23T11:50:55.093Z,1.08
2022-09-23T11:53:29.392Z,1.00
2022-09-23T11:56:03.482Z,1.15
2022-09-23T12:01:13.006Z,1.40
2022-09-23T12:03:48.718Z,1.00
2022-09-23T12:06:21.483Z,1.00
2022-09-23T12:08:54.096Z,1.10
2022-09-23T12:11:30.125Z,0.75
2022-09-23T12:14:09.938Z,1.13
2022-09-23T12:16:57.993Z,1.30
2022-09-23T12:19:57.264Z,1.08
2022-09-23T12:22:43.377Z,1.10
2022-09-23T12:25:32.486Z,0.90
2022-09-23T12:28:05.308Z,1.15
2022-09-23T12:30:38.183Z,1.10
2022-09-23T12:33:16.603Z,1.27
2022-09-23T12:35:45.911Z,1.00
2022-09-23T12:38:19.155Z,1.00
2022-09-23T12:40:47.556Z,0.93
2022-09-23T12:43:20.203Z,1.10
2022-09-23T12:45:49.954Z,1.10
2022-09-23T12:48:47.118Z,1.10
2022-09-23T12:51:20.081Z,1.10
2022-09-23T12:53:56.085Z,1.30
2022-09-23T12:56:29.159Z,1.27
2022-09-23T12:59:20.563Z,1.35
2022-09-23T13:01:49.816Z,0.90
2022-09-23T13:04:35.821Z,1.25
2022-09-23T13:07:08.461Z,1.10
2022-09-23T13:09:41.452Z,1.27
2022-09-23T13:12:16.685Z,0.98
2022-09-23T13:14:47.251Z,1.17
2022-09-23T13:17:29.418Z,1.10
2022-09-23T13:20:05.985Z,1.27
2022-09-23T13:23:04.039Z,0.90
2022-09-23T13:25:34.883Z,0.90
2022-09-23T13:28:03.709Z,0.95
2022-09-23T13:30:31.054Z,1.17
2022-09-23T13:33:10.648Z,1.20
2022-09-23T13:35:42.119Z,1.10
2022-09-23T13:40:39.194Z,1.10
2022-09-23T13:43:13.956Z,1.38
2022-09-23T13:45:42.071Z,1.25
2022-09-23T13:48:13.753Z,1.00
2022-09-23T13:50:47.090Z,1.10
2022-09-23T13:53:22.021Z,1.02
2022-09-23T13:56:01.887Z,1.17
2022-09-23T13:58:31.038Z,1.08
2022-09-23T14:00:59.342Z,1.25
2022-09-23T14:03:35.897Z,1.10
2022-09-23T14:06:09.192Z,0.98
2022-09-23T14:08:39.203Z,1.20
2022-09-23T14:11:06.963Z,1.13
2022-09-23T14:13:43.279Z,1.17
2022-09-23T14:16:13.209Z,1.08
2022-09-23T14:18:45.623Z,1.00
2022-09-23T14:21:31.405Z,1.20
2022-09-23T14:24:12.257Z,1.00
2022-09-23T14:26:40.973Z,1.00
2022-09-23T14:29:15.382Z,1.00
2022-09-23T14:31:46.761Z,1.15
2022-09-23T14:34:44.909Z,0.90
2022-09-23T14:37:23.623Z,1.00
2022-09-23T14:39:54.567Z,1.00
2022-09-23T14:42:25.382Z,1.00
2022-09-23T14:44:52.820Z,1.10
2022-09-23T14:47:20.235Z,0.95
2022-09-23T14:49:50.522Z,1.00
2022-09-23T14:52:18.097Z,1.40
2022-09-23T14:54:46.864Z,1.13
2022-09-23T14:57:29.821Z,1.10
2022-09-23T15:00:00.541Z,0.93
2022-09-23T15:02:30.545Z,0.98
2022-09-23T15:05:14.165Z,1.20
2022-09-23T15:07:43.365Z,0.95
2022-09-23T15:10:18.012Z,1.13
2022-09-23T15:12:47.163Z,0.90
2022-09-23T15:15:16.061Z,0.80
2022-09-23T15:17:43.975Z,1.10
2022-09-23T15:20:23.203Z,1.00
2022-09-23T15:22:52.676Z,1.00
2022-09-23T15:25:22.199Z,0.90
2022-09-23T15:27:58.117Z,1.10
2022-09-23T15:30:26.362Z,1.05
2022-09-23T15:32:53.756Z,1.05
2022-09-23T15:35:24.769Z,0.95
2022-09-23T15:37:55.350Z,0.80
2022-09-23T15:40:25.432Z,0.85
2022-09-23T15:42:55.974Z,0.82
2022-09-23T15:45:29.713Z,1.23
2022-09-23T15:48:01.599Z,1.10
2022-09-23T15:50:30.348Z,1.00
2022-09-23T15:52:58.056Z,1.02
2022-09-23T15:55:25.852Z,1.08
2022-09-23T15:57:53.258Z,1.00
2022-09-23T16:03:05.864Z,0.80
2022-09-23T16:05:38.580Z,0.90
2022-09-23T16:08:09.252Z,1.10
2022-09-23T16:10:38.325Z,0.90
2022-09-23T16:13:10.347Z,0.93
2022-09-23T16:15:38.345Z,1.10
2022-09-23T16:18:06.410Z,1.00
2022-09-23T16:20:38.252Z,2.03
2022-09-23T16:25:35.222Z,0.90
2022-09-23T16:28:04.122Z,1.00
2022-09-23T16:30:34.037Z,1.20
2022-09-23T16:33:01.546Z,1.05
2022-09-23T16:35:31.586Z,0.93
2022-09-23T16:38:00.909Z,1.00
2022-09-23T16:40:28.342Z,1.15
2022-09-23T16:42:56.096Z,0.90
2022-09-23T16:45:23.534Z,1.02
2022-09-23T16:47:52.459Z,1.10
2022-09-23T16:50:23.208Z,1.27
2022-09-23T16:52:51.656Z,1.08
2022-09-23T16:55:20.829Z,1.20
2022-09-23T16:57:48.118Z,1.17
2022-09-23T17:00:16.290Z,1.30
2022-09-23T17:02:44.066Z,1.05
2022-09-23T17:05:11.501Z,1.30
2022-09-23T17:07:38.780Z,1.40
2022-09-23T17:10:07.602Z,1.10
2022-09-23T17:12:36.987Z,0.93
2022-09-23T17:15:08.180Z,1.27
2022-09-23T17:17:36.807Z,1.20
2022-09-23T17:20:06.300Z,1.42
2022-09-23T17:22:34.234Z,1.40
2022-09-23T17:25:02.079Z,1.80
2022-09-23T17:27:29.603Z,2.00
2022-09-23T17:29:58.625Z,2.47
2022-09-23T17:32:26.522Z,1.83
2022-09-23T17:34:53.997Z,1.40
2022-09-23T17:37:21.292Z,1.70
2022-09-23T17:39:49.412Z,1.90
2022-09-23T17:42:16.660Z,1.60
2022-09-23T17:44:44.039Z,1.80
2022-09-23T17:47:13.026Z,2.25
2022-09-23T17:49:40.295Z,2.60
2022-09-23T17:52:07.565Z,2.00
2022-09-23T17:54:35.211Z,2.05
2022-09-23T17:57:03.306Z,2.20
2022-09-23T17:59:30.704Z,2.10
2022-09-23T18:01:58.512Z,2.00
2022-09-23T18:04:27.753Z,2.25
2022-09-23T18:06:55.439Z,2.40
2022-09-23T18:09:23.484Z,2.40
2022-09-23T18:11:50.809Z,2.20
2022-09-23T18:14:20.769Z,1.77
2022-09-23T18:16:50.602Z,1.75
2022-09-23T18:19:19.731Z,1.90
2022-09-23T18:21:50.410Z,2.10
2022-09-23T18:24:31.863Z,1.65
2022-09-23T18:27:00.587Z,2.17
2022-09-23T18:29:28.366Z,1.80
2022-09-23T18:31:56.014Z,1.90
2022-09-23T18:34:23.800Z,1.80
2022-09-23T18:36:52.855Z,1.67
2022-09-23T18:39:20.350Z,1.73
2022-09-23T18:41:47.831Z,4.28
2022-09-23T18:44:16.240Z,2.90
2022-09-23T18:46:43.720Z,2.00
2022-09-23T18:49:11.045Z,1.90
2022-09-23T18:51:47.907Z,2.92
2022-09-23T18:54:17.358Z,4.30
2022-09-23T18:56:45.512Z,4.10
2022-09-23T18:59:14.392Z,4.15
2022-09-23T19:01:42.354Z,2.78
2022-09-23T19:04:10.259Z,5.68
2022-09-23T19:06:37.658Z,5.60
2022-09-23T19:09:06.177Z,2.70
2022-09-23T19:11:35.509Z,3.45
2022-09-23T19:14:04.924Z,3.72
2022-09-23T19:16:32.995Z,4.10
2022-09-23T19:19:05.126Z,3.38
2022-09-23T19:21:36.888Z,3.95
2022-09-23T19:24:07.329Z,3.05
2022-09-23T19:26:37.915Z,4.80
2022-09-23T19:29:08.577Z,3.63
2022-09-23T19:31:38.989Z,4.07
2022-09-23T19:34:11.840Z,3.85
2022-09-23T19:36:40.599Z,3.65
2022-09-23T19:39:12.072Z,3.55
2022-09-23T19:41:40.797Z,3.85
2022-09-23T19:44:08.243Z,3.53
2022-09-23T19:46:38.133Z,3.20
2022-09-23T19:49:06.984Z,3.33
2022-09-23T19:54:20.084Z,3.08
2022-09-23T19:56:49.362Z,3.85
2022-09-23T19:59:18.979Z,3.70
2022-09-23T20:01:47.329Z,3.35
2022-09-23T20:04:14.931Z,3.97
2022-09-23T20:06:42.227Z,4.18
2022-09-23T20:09:09.908Z,4.13
2022-09-23T20:11:37.343Z,3.80
2022-09-23T20:14:06.355Z,3.35
2022-09-23T20:16:37.652Z,3.35
2022-09-23T20:19:05.428Z,3.70
2022-09-23T20:21:33.996Z,3.15
2022-09-23T20:24:03.318Z,3.58
2022-09-23T20:26:30.661Z,3.38
2022-09-23T20:28:58.351Z,2.95
2022-09-23T20:31:28.002Z,3.20
2022-09-23T20:33:57.902Z,3.22
2022-09-23T20:36:25.944Z,5.10
2022-09-23T20:38:54.316Z,4.97
2022-09-23T20:41:22.023Z,3.55
2022-09-23T20:43:52.756Z,3.22
2022-09-23T20:46:20.542Z,4.05
2022-09-23T20:48:49.689Z,3.63
2022-09-23T20:51:17.484Z,3.75
2022-09-23T20:53:45.137Z,3.53
2022-09-23T20:56:12.466Z,3.65
2022-09-23T20:58:39.888Z,3.33
2022-09-23T21:01:09.031Z,4.32
2022-09-23T21:03:37.568Z,3.97
2022-09-23T21:06:08.091Z,3.47
2022-09-23T21:08:37.404Z,3.63
2022-09-23T21:11:06.760Z,3.30
2022-09-23T21:13:34.857Z,5.80
2022-09-23T21:16:03.316Z,5.53
2022-09-23T21:18:31.018Z,3.90
2022-09-23T21:20:59.805Z,5.35
2022-09-23T21:23:31.085Z,6.20
2022-09-23T21:26:01.771Z,8.52
2022-09-23T21:28:33.749Z,6.95
2022-09-23T21:31:01.488Z,4.35
2022-09-23T21:33:29.574Z,4.15
2022-09-23T21:35:59.258Z,3.67
2022-09-23T21:38:27.836Z,2.55
2022-09-23T21:40:58.932Z,2.90
2022-09-23T21:43:28.884Z,2.45
2022-09-23T21:45:57.473Z,3.58
2022-09-23T21:48:25.466Z,3.10
2022-09-23T21:51:00.413Z,3.65
2022-09-23T21:53:30.784Z,5.18
2022-09-23T21:56:03.525Z,5.10
2022-09-23T21:58:31.147Z,4.63
2022-09-23T22:00:59.158Z,4.10
2022-09-23T22:03:27.024Z,3.72
2022-09-23T22:06:06.390Z,3.40
2022-09-23T22:08:37.378Z,3.70
2022-09-23T22:11:06.689Z,4.28
2022-09-23T22:13:34.416Z,3.22
2022-09-23T22:16:03.655Z,3.90
2022-09-23T22:18:31.081Z,3.35
2022-09-23T22:20:58.331Z,3.13
2022-09-23T22:23:26.136Z,3.70
2022-09-23T22:26:03.060Z,3.53
2022-09-23T22:28:32.663Z,4.15
2022-09-23T22:30:59.984Z,3.05
2022-09-23T22:33:27.272Z,2.85
2022-09-23T22:36:01.848Z,3.22
2022-09-23T22:38:29.137Z,2.97
2022-09-23T22:40:58.278Z,3.03
2022-09-23T22:43:25.823Z,2.47
2022-09-23T22:45:53.071Z,3.40
2022-09-23T22:48:20.684Z,3.05
2022-09-23T22:50:48.171Z,3.30
2022-09-23T22:53:15.534Z,2.95
2022-09-23T22:55:43.129Z,3.40
2022-09-23T22:58:31.329Z,3.60
2022-09-23T23:00:59.446Z,3.92
2022-09-23T23:03:26.919Z,4.38
2022-09-23T23:05:54.247Z,4.47
2022-09-23T23:08:22.060Z,4.18
2022-09-23T23:10:49.497Z,4.03
2022-09-23T23:13:18.304Z,4.38
2022-09-23T23:15:45.887Z,5.43
2022-09-23T23:18:13.419Z,4.88
2022-09-23T23:20:40.906Z,3.83
2022-09-23T23:23:08.568Z,6.53
2022-09-23T23:25:35.895Z,4.20
2022-09-23T23:28:03.620Z,3.70
2022-09-23T23:30:33.198Z,3.92
2022-09-23T23:33:00.555Z,4.28
2022-09-23T23:35:27.897Z,4.47
2022-09-23T23:37:56.014Z,4.63
2022-09-23T23:40:23.265Z,5.18
2022-09-23T23:42:50.479Z,5.63
2022-09-23T23:45:18.469Z,4.57
2022-09-23T23:47:47.071Z,4.65
2022-09-23T23:50:14.509Z,3.50
2022-09-23T23:52:42.316Z,4.88
2022-09-23T23:55:09.836Z,4.68
2022-09-23T23:57:37.089Z,8.93
